Terminal Aerodrome Forecast
Issued by NWS

Home | Current Version | Previous Version | Text Only | Print | Product List | Glossary On
Versions: 1 2 3 4 5 6 7 8 9 10 11 12 13 14 15 16 17 18 19 20 21 22 23 24 25 26 27 28 29 30 31 32 33 34 35 36 37 38 39
000
FTPA31 PHFO 270900 AAB
TAFPPG
TAF AMD
NSTU 270912Z 2709/2806 VRB06KT 6SM -RA FEW015CB BKN035=

USA.gov is the U.S. government's official web portal to all federal, state and local government web resources and services.